avvertimento per Temporali more information blitzortung!


avvertimento per Pioggia more information rain snow radar


altri nostri siti meteo:

PomeziameteoStazione ufficiale di Pomezia

MeteopomeziaSito sulle condizioni meteo



Temporali Inizio validita dal: 24-06-2018 13:00 Fino: 18:59 Allerta per: Temporali Livello: Giallo info button
Pioggia Inizio validita dal: 24-06-2018 13:00 Fino: 18:59 Allerta per: Pioggia Livello: Giallo info button

Report METAR

   
LIMP - Parma
Dati ricevuti: 24-06-2018 07:50
Sereno  
Sereno  
   Vento: Variabile 1.9 km/h
Vento: Variabile 1.9 km/h
Temperatura: 17°C
P.to Rugiada: 11°C
Umidita: 68%
Barometro: 1019 hPa
Visibilita: oltre 10 km
dettagli cloud: Sereno
LIMP 240550Z VRB01KT CAVOK 17/11 Q1019
LIPE - Bologna
Dati ricevuti: 24-06-2018 08:20
Sereno  
Sereno  
   Vento: Variabile 3.7 km/h
Vento: Variabile 3.7 km/h
Temperatura: 19°C
P.to Rugiada: 10°C
Umidita: 56%
Barometro: 1020 hPa
Visibilita: oltre 10 km
dettagli cloud: Sereno
LIPE 240620Z VRB02KT CAVOK 19/10 Q1020
LIPO - Brescia/Montichi
Dati ricevuti: 24-06-2018 07:50
Parzialmente nuvoloso  
Parzialmente nuvoloso  
   Vento: NE 9.3 km/h
Vento: NE 9.3 km/h
Temperatura: 19°C
P.to Rugiada: 10°C
Umidita: 56%
Barometro: 1018 hPa
Nuvole: Parzialmente nuvoloso
Visibilita: oltre 10 km
dettagli cloud: Parzialmente nuvoloso 5000 ft
LIPO 240550Z 06005KT 9999 SCT050 19/10 Q1018
LIPF - Ferrara
Dati ricevuti: 24-06-2018 07:55
Parzialmente nuvoloso  
Parzialmente nuvoloso  
   Vento: calma
Vento: calma
Temperatura: 16°C
P.to Rugiada: 12°C
Umidita: 77%
Barometro: 1018 hPa
Nuvole: Parzialmente nuvoloso
Visibilita: oltre 10 km
dettagli cloud: Parzialmente nuvoloso 7000 ft
LIPF 240555Z 00000KT 9999 SCT070 16/12 Q1018
LIPL - Ghedi
Dati ricevuti: 24-06-2018 07:55
Parzialmente nuvoloso  
Parzialmente nuvoloso  
   Vento: NE 11.1 km/h
Vento: NE 11.1 km/h
Temperatura: 17°C
P.to Rugiada: 10°C
Umidita: 64%
Barometro: 1018 hPa
Nuvole: Parzialmente nuvoloso
Visibilita: oltre 10 km
dettagli cloud: Parzialmente nuvoloso 6000 ft
LIPL 240555Z 06006KT 9999 SCT060 17/10 Q1018 RMK SCT VIS MIN 9999 WIND THR31 06007KT WIND THR13 06006KT BLU
LIVC - Monte Cimone
Dati ricevuti: 22-06-2018 09:55
DATI Obsoleti
Nebbia  
Nebbia  
   Vento: SW 18.5 km/h
Vento: SW 18.5 km/h
Temperatura: 11°C
P.to Rugiada: 10°C
Umidita: 94%
Barometro: 1021 hPa
Visibilita: 0 km
dettagli cloud: Coperto
LIVC 220755Z 23010KT 0000 FG VV/// 11/10 Q1021 RMK MON INVIS VAL INVIS VIS MIN 0000
LIMS - Piacenza
Dati ricevuti: 24-06-2018 07:55
Sereno  
Sereno  
   Vento: SE 5.6 km/h
Vento: SE 5.6 km/h
Temperatura: 17°C
P.to Rugiada: 17°C
Umidita: 100%
Barometro: 1017 hPa
Visibilita: oltre 10 km
dettagli cloud: Sereno
LIMS 240555Z 12003KT CAVOK 17/17 Q1017
LIMT - Passo della Cisa
Dati ricevuti: 13-04-2018 12:55
DATI Obsoleti
Nebbia  
Nebbia  
   Vento: S 14.8 km/h
Vento: S 14.8 km/h
Temperatura: 6°C
Temperatura Vento: 3°C
P.to Rugiada: 4°C
Umidita: 87%
Barometro: 1013 hPa
Visibilita: 0 km
dettagli cloud: Coperto
LIMT 131055Z 20008KT 0000 FG VV/// 06/04 Q1013 RMK MON INVIS VAL INVIS VIS MIN 0000
LIPU - Padova
Dati ricevuti: 24-06-2018 08:00
Parzialmente nuvoloso  
Parzialmente nuvoloso  
   Vento: Variabile 5.6 km/h
Vento: Variabile 5.6 km/h
Temperatura: 19°C
P.to Rugiada: 13°C
Umidita: 68%
Barometro: 1019 hPa
Nuvole: Parzialmente nuvoloso
Visibilita: oltre 10 km
dettagli cloud: Parzialmente nuvoloso 7000 ft
LIPU 240600Z VRB03KT 9999 SCT070 19/13 Q1019

Script sviluppato da  Saratoga-weather.org Adattato per il modello da  Weerstation Leuven

Strumentazione usata:

Stazione meteo
Davis VP2

Programma gestore dati meteo
WVIEW

Server per i dati meteo
Pc-WDS5

Davis VP2

WVIEW

Pc-WDS5